• Join FlightAware (Why Join?)
  • Login
  • US Flag 
12:40PM EST


 

Airport Tracker/Info


-or-


 

Live Flight TrackerFlight Track Log ✈ PDT4236 ✈ 27-May-2013 ✈ KCLT - KHTS

Flight Track Log - Related Links

Times and Time Zones

All times are in EDT time to prevent confusion due to time zone crossing. See the PDT4236 flight status page for this flight to view local times or setup timezone preferences in your user account.

Time Position Orientation Groundspeed Altitude Reporting Facility
EDT Latitude Longitude Course Direction KTS MPH feet Rate Location/Type
02:43PM 35.1956 -80.9533 340° North 139 160 1,400  Level Atlanta Center
02:43PM 35.1856 -80.9767 242° Southwest 154 177 2,200 1,500 Climbing Atlanta Center
02:44PM 35.1808 -81.0325 264° West 167 192 3,900 840 Climbing Atlanta Center
02:45PM 35.3813 -81.0240 338° Northwest  Level FlightAware Approximate
02:45PM 35.1761 -81.1014 265° West 216 249 4,000  Level Atlanta Center
02:46PM 35.4549 -81.0490 347° North  Level FlightAware Approximate
02:46PM 35.1781 -81.1775 272° West 202 232 5,900  Level Atlanta Center
02:47PM 35.5268 -81.0768 321° Northwest  Level FlightAware Approximate
02:47PM 35.2017 -81.2150 308° West 170 196 7,100  Level Atlanta Center
02:48PM 35.5974 -81.1118 340° North  Level FlightAware Approximate
02:48PM 35.2561 -81.2181 357° North 195 224 8,300  Level Atlanta Center
02:50PM 35.3186 -81.2186 360° North 194 223 9,800 1,200 Climbing Atlanta Center
02:50PM 35.3600 -81.2019 18° North 197 227 10,700 900 Climbing Atlanta Center
02:51PM 35.4139 -81.1822 17° North 208 239 11,600 900 Climbing Atlanta Center
02:52PM 35.4736 -81.1544 21° North 208 239 12,500 900 Climbing Atlanta Center
02:53PM 35.5294 -81.1322 18° North 208 239 13,400 840 Climbing Atlanta Center
02:54PM 35.5836 -81.1250 North 203 234 14,200 780 Climbing Atlanta Center
02:55PM 35.6364 -81.1539 336° Northwest 190 219 15,000 780 Climbing Atlanta Center
02:56PM 35.6828 -81.1803 335° Northwest 203 234 15,800 660 Climbing Atlanta Center
02:57PM 35.7378 -81.2067 339° North 203 234 16,400 600 Climbing Atlanta Center
02:58PM 35.7883 -81.2331 337° Northwest 203 234 17,100 600 Climbing Atlanta Center
02:59PM 35.8453 -81.2617 338° Northwest 198 228 17,700 480 Climbing Atlanta Center
03:00PM 35.9003 -81.2881 339° North 198 228 18,100 360 Climbing Atlanta Center
03:01PM 35.9550 -81.3169 337° Northwest 198 228 18,500 420 Climbing Atlanta Center
03:02PM 36.0100 -81.3433 339° North 212 244 19,000 360 Climbing Atlanta Center
03:03PM 36.0689 -81.3722 338° Northwest 212 244 19,300 300 Climbing Atlanta Center
03:04PM 36.1258 -81.4014 338° Northwest 217 250 19,700 480 Climbing Atlanta Center
03:05PM 36.1850 -81.4303 338° Northwest 217 250 20,300 540 Climbing Atlanta Center
03:06PM 36.2397 -81.4592 337° Northwest 212 244 20,800 540 Climbing Atlanta Center
03:07PM 36.2944 -81.4858 339° North 212 244 21,400 420 Climbing Atlanta Center
03:08PM 36.3536 -81.5150 338° Northwest 212 244 21,700 300 Climbing Atlanta Center
03:09PM 36.4000 -81.5392 337° Northwest 212 244 22,000 120 Climbing Atlanta Center
03:10PM 36.4589 -81.5683 338° Northwest 217 250 22,000  Level Atlanta Center
03:11PM 36.5219 -81.6000 338° Northwest 222 255 22,000  Level Atlanta Center
03:12PM 36.5831 -81.6317 337° Northwest 222 255 22,000  Level Atlanta Center
03:13PM 36.6464 -81.6661 336° Northwest 238 274 22,000  Level Atlanta Center
03:15PM 36.7494 -81.7158 339° North 242 278 22,000  Level Indianapolis Center
03:16PM 36.8214 -81.7536 337° Northwest 239 275 22,000  Level Indianapolis Center
03:17PM 36.8856 -81.7856 338° Northwest 243 280 22,000  Level Indianapolis Center
03:18PM 36.9472 -81.8167 338° Northwest 240 276 22,000  Level Indianapolis Center
03:19PM 37.0111 -81.8500 337° Northwest 245 282 22,000  Level Indianapolis Center
03:20PM 37.0736 -81.8811 338° Northwest 243 280 22,000  Level Indianapolis Center
03:21PM 37.1350 -81.9142 337° Northwest 240 276 22,000 -300 Level Indianapolis Center
03:22PM 37.2092 -81.9525 338° Northwest 245 282 21,400 -840 Descending Indianapolis Center
03:23PM 37.2808 -81.9889 338° Northwest 271 312 20,400 -1,020 Descending Indianapolis Center
03:24PM 37.3564 -82.0272 338° Northwest 288 331 19,400 -1,020 Descending Indianapolis Center
03:26PM 37.4331 -82.0678 337° Northwest 296 341 18,400 -840 Descending Indianapolis Center
03:27PM 37.5072 -82.1058 338° Northwest 290 334 17,700 -840 Descending Indianapolis Center
03:28PM 37.5803 -82.1439 338° Northwest 283 326 16,700 -1,140 Descending Indianapolis Center
03:29PM 37.6628 -82.1853 338° Northwest 274 315 15,400 -1,140 Descending Indianapolis Center
03:30PM 37.7328 -82.2236 337° Northwest 274 315 14,400 -1,020 Descending Indianapolis Center
03:31PM 37.8044 -82.2614 337° Northwest 278 320 13,400 -1,020 Descending Indianapolis Center
03:32PM 37.8753 -82.2975 338° Northwest 277 319 12,400 -1,020 Descending Indianapolis Center
03:33PM 37.9458 -82.3350 337° Northwest 275 316 11,400 -1,020 Descending Indianapolis Center
03:34PM 38.0172 -82.3717 338° Northwest 277 319 10,400 -1,320 Descending Indianapolis Center
03:35PM 38.0922 -82.4125 337° Northwest 257 296 8,800 -1,560 Descending Indianapolis Center
03:36PM 38.1564 -82.4467 337° Northwest 254 292 7,300 -1,500 Descending Indianapolis Center
03:37PM 38.2211 -82.4819 337° Northwest 253 291 5,800 -1,500 Descending Indianapolis Center
03:38PM 38.2831 -82.5158 337° Northwest 243 280 4,300 -1,500 Descending Indianapolis Center